sensor_id;sensor_type;location;lat;lon;timestamp;P1;durP1;ratioP1;P2;durP2;ratioP2
16579;SDS011;8402;51.466;6.806;2023-03-05T00:02:00;10.13;;;1.90;;
16579;SDS011;8402;51.466;6.806;2023-03-05T00:04:32;4.13;;;1.43;;
16579;SDS011;8402;51.466;6.806;2023-03-05T00:07:02;7.87;;;2.00;;
16579;SDS011;8402;51.466;6.806;2023-03-05T00:09:37;8.13;;;1.30;;
16579;SDS011;8402;51.466;6.806;2023-03-05T00:12:08;4.10;;;1.30;;
16579;SDS011;8402;51.466;6.806;2023-03-05T00:14:38;5.07;;;1.53;;
16579;SDS011;8402;51.466;6.806;2023-03-05T00:17:08;8.27;;;1.40;;
16579;SDS011;8402;51.466;6.806;2023-03-05T00:19:38;5.03;;;1.30;;
16579;SDS011;8402;51.466;6.806;2023-03-05T00:22:08;6.63;;;1.60;;
16579;SDS011;8402;51.466;6.806;2023-03-05T00:24:40;3.80;;;1.20;;
16579;SDS011;8402;51.466;6.806;2023-03-05T00:27:10;4.47;;;1.17;;
16579;SDS011;8402;51.466;6.806;2023-03-05T00:29:40;4.03;;;1.27;;
16579;SDS011;8402;51.466;6.806;2023-03-05T00:32:10;6.73;;;1.77;;
16579;SDS011;8402;51.466;6.806;2023-03-05T00:34:40;5.57;;;1.40;;
16579;SDS011;8402;51.466;6.806;2023-03-05T00:37:10;5.07;;;1.60;;
16579;SDS011;8402;51.466;6.806;2023-03-05T00:39:42;13.87;;;1.97;;
16579;SDS011;8402;51.466;6.806;2023-03-05T00:42:12;3.63;;;1.77;;
16579;SDS011;8402;51.466;6.806;2023-03-05T00:44:41;11.47;;;1.80;;
16579;SDS011;8402;51.466;6.806;2023-03-05T00:47:11;6.40;;;1.77;;
16579;SDS011;8402;51.466;6.806;2023-03-05T00:49:43;6.80;;;2.30;;
16579;SDS011;8402;51.466;6.806;2023-03-05T00:52:13;6.20;;;2.20;;
16579;SDS011;8402;51.466;6.806;2023-03-05T00:54:46;6.57;;;2.17;;
16579;SDS011;8402;51.466;6.806;2023-03-05T00:57:16;5.83;;;1.93;;
16579;SDS011;8402;51.466;6.806;2023-03-05T00:59:45;9.23;;;2.40;;
16579;SDS011;8402;51.466;6.806;2023-03-05T01:02:15;21.20;;;3.50;;
16579;SDS011;8402;51.466;6.806;2023-03-05T01:04:45;11.90;;;2.93;;
16579;SDS011;8402;51.466;6.806;2023-03-05T01:07:15;12.47;;;3.00;;
16579;SDS011;8402;51.466;6.806;2023-03-05T01:09:47;10.10;;;3.03;;
16579;SDS011;8402;51.466;6.806;2023-03-05T01:12:17;14.80;;;3.40;;
16579;SDS011;8402;51.466;6.806;2023-03-05T01:14:47;8.07;;;2.73;;
16579;SDS011;8402;51.466;6.806;2023-03-05T01:17:17;12.27;;;2.97;;
16579;SDS011;8402;51.466;6.806;2023-03-05T01:19:46;6.93;;;2.20;;
16579;SDS011;8402;51.466;6.806;2023-03-05T01:22:16;14.93;;;2.20;;
16579;SDS011;8402;51.466;6.806;2023-03-05T01:24:49;7.77;;;1.90;;
16579;SDS011;8402;51.466;6.806;2023-03-05T01:27:19;9.87;;;1.60;;
16579;SDS011;8402;51.466;6.806;2023-03-05T01:29:48;9.00;;;1.67;;
16579;SDS011;8402;51.466;6.806;2023-03-05T01:32:18;7.03;;;2.30;;
16579;SDS011;8402;51.466;6.806;2023-03-05T01:34:48;17.27;;;2.03;;
16579;SDS011;8402;51.466;6.806;2023-03-05T01:37:18;8.17;;;1.77;;
16579;SDS011;8402;51.466;6.806;2023-03-05T01:39:51;5.43;;;1.90;;
16579;SDS011;8402;51.466;6.806;2023-03-05T01:42:21;12.83;;;2.03;;
16579;SDS011;8402;51.466;6.806;2023-03-05T01:44:58;6.27;;;1.80;;
16579;SDS011;8402;51.466;6.806;2023-03-05T01:47:30;8.07;;;2.07;;
16579;SDS011;8402;51.466;6.806;2023-03-05T01:50:00;9.83;;;2.70;;
16579;SDS011;8402;51.466;6.806;2023-03-05T01:52:30;14.87;;;2.60;;
16579;SDS011;8402;51.466;6.806;2023-03-05T01:55:07;8.40;;;2.90;;
16579;SDS011;8402;51.466;6.806;2023-03-05T01:57:40;12.93;;;2.47;;
16579;SDS011;8402;51.466;6.806;2023-03-05T02:00:15;17.40;;;3.17;;
16579;SDS011;8402;51.466;6.806;2023-03-05T02:02:47;8.53;;;2.70;;
16579;SDS011;8402;51.466;6.806;2023-03-05T02:05:20;11.53;;;2.77;;
16579;SDS011;8402;51.466;6.806;2023-03-05T02:07:54;10.53;;;2.47;;
16579;SDS011;8402;51.466;6.806;2023-03-05T02:10:28;13.57;;;2.20;;
16579;SDS011;8402;51.466;6.806;2023-03-05T02:13:01;7.00;;;2.07;;
16579;SDS011;8402;51.466;6.806;2023-03-05T02:15:33;9.47;;;2.00;;
16579;SDS011;8402;51.466;6.806;2023-03-05T02:18:04;8.67;;;1.43;;
16579;SDS011;8402;51.466;6.806;2023-03-05T02:20:42;8.17;;;1.60;;
16579;SDS011;8402;51.466;6.806;2023-03-05T02:23:16;11.47;;;2.27;;
16579;SDS011;8402;51.466;6.806;2023-03-05T02:25:48;7.23;;;1.70;;
16579;SDS011;8402;51.466;6.806;2023-03-05T02:28:19;10.00;;;2.23;;
16579;SDS011;8402;51.466;6.806;2023-03-05T02:30:52;6.97;;;2.23;;
16579;SDS011;8402;51.466;6.806;2023-03-05T02:33:22;6.73;;;1.90;;
16579;SDS011;8402;51.466;6.806;2023-03-05T02:35:52;7.57;;;1.90;;
16579;SDS011;8402;51.466;6.806;2023-03-05T02:38:25;7.17;;;1.43;;
16579;SDS011;8402;51.466;6.806;2023-03-05T02:40:55;10.10;;;1.60;;
16579;SDS011;8402;51.466;6.806;2023-03-05T02:43:25;7.40;;;1.73;;
16579;SDS011;8402;51.466;6.806;2023-03-05T02:45:55;6.27;;;1.70;;
16579;SDS011;8402;51.466;6.806;2023-03-05T02:48:24;6.17;;;1.70;;
16579;SDS011;8402;51.466;6.806;2023-03-05T02:50:55;12.23;;;2.47;;
16579;SDS011;8402;51.466;6.806;2023-03-05T02:53:28;7.57;;;1.60;;
16579;SDS011;8402;51.466;6.806;2023-03-05T02:55:58;9.40;;;2.37;;
16579;SDS011;8402;51.466;6.806;2023-03-05T02:58:27;8.57;;;2.13;;
16579;SDS011;8402;51.466;6.806;2023-03-05T03:00:57;10.63;;;2.13;;
16579;SDS011;8402;51.466;6.806;2023-03-05T03:03:28;6.80;;;1.50;;
16579;SDS011;8402;51.466;6.806;2023-03-05T03:05:58;10.87;;;2.13;;
16579;SDS011;8402;51.466;6.806;2023-03-05T03:08:31;9.73;;;1.80;;
16579;SDS011;8402;51.466;6.806;2023-03-05T03:11:04;7.17;;;2.00;;
16579;SDS011;8402;51.466;6.806;2023-03-05T03:13:36;8.50;;;2.07;;
16579;SDS011;8402;51.466;6.806;2023-03-05T03:16:07;9.60;;;1.90;;
16579;SDS011;8402;51.466;6.806;2023-03-05T03:18:38;6.03;;;1.57;;
16579;SDS011;8402;51.466;6.806;2023-03-05T03:21:15;4.40;;;1.27;;
16579;SDS011;8402;51.466;6.806;2023-03-05T03:23:49;6.73;;;2.27;;
16579;SDS011;8402;51.466;6.806;2023-03-05T03:26:19;4.33;;;1.90;;
16579;SDS011;8402;51.466;6.806;2023-03-05T03:28:49;15.60;;;2.27;;
16579;SDS011;8402;51.466;6.806;2023-03-05T03:31:18;8.47;;;2.10;;
16579;SDS011;8402;51.466;6.806;2023-03-05T03:33:48;11.77;;;1.80;;
16579;SDS011;8402;51.466;6.806;2023-03-05T03:36:18;3.57;;;1.20;;
16579;SDS011;8402;51.466;6.806;2023-03-05T03:38:50;9.80;;;2.17;;
16579;SDS011;8402;51.466;6.806;2023-03-05T03:41:21;9.57;;;2.60;;
16579;SDS011;8402;51.466;6.806;2023-03-05T03:43:50;9.77;;;1.67;;
16579;SDS011;8402;51.466;6.806;2023-03-05T03:46:20;2.77;;;1.20;;
16579;SDS011;8402;51.466;6.806;2023-03-05T03:48:50;5.83;;;1.63;;
16579;SDS011;8402;51.466;6.806;2023-03-05T03:51:20;8.70;;;1.60;;
16579;SDS011;8402;51.466;6.806;2023-03-05T03:53:52;3.50;;;1.10;;
16579;SDS011;8402;51.466;6.806;2023-03-05T03:56:22;5.83;;;1.37;;
16579;SDS011;8402;51.466;6.806;2023-03-05T03:58:52;4.63;;;1.40;;
16579;SDS011;8402;51.466;6.806;2023-03-05T04:01:22;11.47;;;2.00;;
16579;SDS011;8402;51.466;6.806;2023-03-05T04:03:52;7.27;;;2.10;;
16579;SDS011;8402;51.466;6.806;2023-03-05T04:06:22;7.13;;;2.27;;
16579;SDS011;8402;51.466;6.806;2023-03-05T04:08:58;10.87;;;3.40;;
16579;SDS011;8402;51.466;6.806;2023-03-05T04:11:28;11.57;;;3.30;;
16579;SDS011;8402;51.466;6.806;2023-03-05T04:13:58;10.37;;;4.10;;
16579;SDS011;8402;51.466;6.806;2023-03-05T04:16:27;12.23;;;4.20;;
16579;SDS011;8402;51.466;6.806;2023-03-05T04:18:57;13.10;;;3.27;;
16579;SDS011;8402;51.466;6.806;2023-03-05T04:21:27;13.63;;;3.17;;
16579;SDS011;8402;51.466;6.806;2023-03-05T04:24:00;12.43;;;3.63;;
16579;SDS011;8402;51.466;6.806;2023-03-05T04:26:30;13.03;;;2.63;;
16579;SDS011;8402;51.466;6.806;2023-03-05T04:28:59;9.67;;;2.37;;
16579;SDS011;8402;51.466;6.806;2023-03-05T04:31:29;8.90;;;1.97;;
16579;SDS011;8402;51.466;6.806;2023-03-05T04:33:59;8.77;;;2.17;;
16579;SDS011;8402;51.466;6.806;2023-03-05T04:36:29;10.40;;;2.27;;
16579;SDS011;8402;51.466;6.806;2023-03-05T04:39:02;6.73;;;2.40;;
16579;SDS011;8402;51.466;6.806;2023-03-05T04:41:32;12.13;;;2.73;;
16579;SDS011;8402;51.466;6.806;2023-03-05T04:44:02;12.10;;;2.43;;
16579;SDS011;8402;51.466;6.806;2023-03-05T04:46:32;9.40;;;2.57;;
16579;SDS011;8402;51.466;6.806;2023-03-05T04:49:02;6.00;;;2.30;;
16579;SDS011;8402;51.466;6.806;2023-03-05T04:51:32;11.87;;;2.00;;
16579;SDS011;8402;51.466;6.806;2023-03-05T04:54:04;8.83;;;2.33;;
16579;SDS011;8402;51.466;6.806;2023-03-05T04:56:34;10.43;;;2.30;;
16579;SDS011;8402;51.466;6.806;2023-03-05T04:59:04;10.37;;;2.07;;
16579;SDS011;8402;51.466;6.806;2023-03-05T05:01:34;9.57;;;2.37;;
16579;SDS011;8402;51.466;6.806;2023-03-05T05:04:04;5.70;;;2.00;;
16579;SDS011;8402;51.466;6.806;2023-03-05T05:06:34;4.67;;;1.60;;
16579;SDS011;8402;51.466;6.806;2023-03-05T05:09:06;11.47;;;2.10;;
16579;SDS011;8402;51.466;6.806;2023-03-05T05:11:36;10.00;;;2.23;;
16579;SDS011;8402;51.466;6.806;2023-03-05T05:14:06;9.83;;;2.57;;
16579;SDS011;8402;51.466;6.806;2023-03-05T05:16:36;5.23;;;2.07;;
16579;SDS011;8402;51.466;6.806;2023-03-05T05:19:05;8.20;;;2.23;;
16579;SDS011;8402;51.466;6.806;2023-03-05T05:21:35;7.17;;;2.40;;
16579;SDS011;8402;51.466;6.806;2023-03-05T05:24:08;10.07;;;2.30;;
16579;SDS011;8402;51.466;6.806;2023-03-05T05:26:37;8.83;;;2.10;;
16579;SDS011;8402;51.466;6.806;2023-03-05T05:29:07;10.97;;;2.20;;
16579;SDS011;8402;51.466;6.806;2023-03-05T05:31:49;3.87;;;1.80;;
16579;SDS011;8402;51.466;6.806;2023-03-05T05:34:19;8.30;;;1.57;;
16579;SDS011;8402;51.466;6.806;2023-03-05T05:36:50;6.77;;;1.80;;
16579;SDS011;8402;51.466;6.806;2023-03-05T05:39:23;4.53;;;1.63;;
16579;SDS011;8402;51.466;6.806;2023-03-05T05:41:53;6.30;;;2.00;;
16579;SDS011;8402;51.466;6.806;2023-03-05T05:44:23;8.90;;;1.97;;
16579;SDS011;8402;51.466;6.806;2023-03-05T05:46:52;11.77;;;2.37;;
16579;SDS011;8402;51.466;6.806;2023-03-05T05:49:22;5.80;;;2.23;;
16579;SDS011;8402;51.466;6.806;2023-03-05T05:51:52;4.77;;;1.33;;
16579;SDS011;8402;51.466;6.806;2023-03-05T05:54:25;5.67;;;1.77;;
16579;SDS011;8402;51.466;6.806;2023-03-05T05:56:55;4.93;;;1.53;;
16579;SDS011;8402;51.466;6.806;2023-03-05T05:59:25;9.43;;;2.13;;
16579;SDS011;8402;51.466;6.806;2023-03-05T06:01:55;7.10;;;1.77;;
16579;SDS011;8402;51.466;6.806;2023-03-05T06:04:25;5.93;;;1.77;;
16579;SDS011;8402;51.466;6.806;2023-03-05T06:06:55;7.07;;;2.10;;
16579;SDS011;8402;51.466;6.806;2023-03-05T06:09:27;8.03;;;2.07;;
16579;SDS011;8402;51.466;6.806;2023-03-05T06:11:57;6.07;;;1.87;;
16579;SDS011;8402;51.466;6.806;2023-03-05T06:14:27;6.67;;;2.03;;
16579;SDS011;8402;51.466;6.806;2023-03-05T06:16:57;9.23;;;2.20;;
16579;SDS011;8402;51.466;6.806;2023-03-05T06:19:27;10.33;;;2.40;;
16579;SDS011;8402;51.466;6.806;2023-03-05T06:21:57;9.80;;;2.47;;
16579;SDS011;8402;51.466;6.806;2023-03-05T06:24:29;8.00;;;1.80;;
16579;SDS011;8402;51.466;6.806;2023-03-05T06:26:59;5.33;;;1.87;;
16579;SDS011;8402;51.466;6.806;2023-03-05T06:29:29;6.23;;;1.50;;
16579;SDS011;8402;51.466;6.806;2023-03-05T06:31:59;12.73;;;2.50;;
16579;SDS011;8402;51.466;6.806;2023-03-05T06:34:29;6.33;;;2.30;;
16579;SDS011;8402;51.466;6.806;2023-03-05T06:37:01;3.73;;;2.00;;
16579;SDS011;8402;51.466;6.806;2023-03-05T06:39:34;5.53;;;2.13;;
16579;SDS011;8402;51.466;6.806;2023-03-05T06:42:04;9.97;;;2.00;;
16579;SDS011;8402;51.466;6.806;2023-03-05T06:44:34;9.40;;;2.23;;
16579;SDS011;8402;51.466;6.806;2023-03-05T06:47:06;6.87;;;1.97;;
16579;SDS011;8402;51.466;6.806;2023-03-05T06:49:37;7.33;;;2.43;;
16579;SDS011;8402;51.466;6.806;2023-03-05T06:52:08;10.60;;;2.30;;
16579;SDS011;8402;51.466;6.806;2023-03-05T06:54:40;7.50;;;2.10;;
16579;SDS011;8402;51.466;6.806;2023-03-05T06:57:11;6.43;;;2.17;;
16579;SDS011;8402;51.466;6.806;2023-03-05T06:59:40;9.10;;;2.60;;
16579;SDS011;8402;51.466;6.806;2023-03-05T07:02:10;7.17;;;1.93;;
16579;SDS011;8402;51.466;6.806;2023-03-05T07:04:40;10.30;;;2.43;;
16579;SDS011;8402;51.466;6.806;2023-03-05T07:07:10;4.83;;;2.00;;
16579;SDS011;8402;51.466;6.806;2023-03-05T07:09:42;9.40;;;2.27;;
16579;SDS011;8402;51.466;6.806;2023-03-05T07:12:15;7.33;;;2.27;;
16579;SDS011;8402;51.466;6.806;2023-03-05T07:14:45;13.33;;;2.63;;
16579;SDS011;8402;51.466;6.806;2023-03-05T07:17:15;5.77;;;2.20;;
16579;SDS011;8402;51.466;6.806;2023-03-05T07:19:45;7.50;;;2.10;;
16579;SDS011;8402;51.466;6.806;2023-03-05T07:22:15;6.10;;;2.10;;
16579;SDS011;8402;51.466;6.806;2023-03-05T07:24:48;3.33;;;1.17;;
16579;SDS011;8402;51.466;6.806;2023-03-05T07:27:18;6.47;;;2.33;;
16579;SDS011;8402;51.466;6.806;2023-03-05T07:29:48;8.40;;;2.20;;
16579;SDS011;8402;51.466;6.806;2023-03-05T07:32:18;10.97;;;2.73;;
16579;SDS011;8402;51.466;6.806;2023-03-05T07:34:48;6.73;;;2.50;;
16579;SDS011;8402;51.466;6.806;2023-03-05T07:37:18;8.10;;;2.40;;
16579;SDS011;8402;51.466;6.806;2023-03-05T07:39:50;10.23;;;2.40;;
16579;SDS011;8402;51.466;6.806;2023-03-05T07:42:20;7.73;;;2.40;;
16579;SDS011;8402;51.466;6.806;2023-03-05T07:44:50;3.90;;;1.47;;
16579;SDS011;8402;51.466;6.806;2023-03-05T07:47:20;14.37;;;2.43;;
16579;SDS011;8402;51.466;6.806;2023-03-05T07:49:50;6.97;;;2.73;;
16579;SDS011;8402;51.466;6.806;2023-03-05T07:52:20;6.17;;;2.70;;
16579;SDS011;8402;51.466;6.806;2023-03-05T07:54:52;12.50;;;2.60;;
16579;SDS011;8402;51.466;6.806;2023-03-05T07:57:22;7.90;;;2.40;;
16579;SDS011;8402;51.466;6.806;2023-03-05T07:59:52;9.07;;;2.60;;
16579;SDS011;8402;51.466;6.806;2023-03-05T08:02:22;6.87;;;2.70;;
16579;SDS011;8402;51.466;6.806;2023-03-05T08:04:52;9.70;;;1.80;;
16579;SDS011;8402;51.466;6.806;2023-03-05T08:07:22;7.33;;;1.90;;
16579;SDS011;8402;51.466;6.806;2023-03-05T08:09:54;7.40;;;2.23;;
16579;SDS011;8402;51.466;6.806;2023-03-05T08:12:24;8.23;;;2.13;;
16579;SDS011;8402;51.466;6.806;2023-03-05T08:14:55;7.17;;;2.20;;
16579;SDS011;8402;51.466;6.806;2023-03-05T08:17:28;6.53;;;2.40;;
16579;SDS011;8402;51.466;6.806;2023-03-05T08:19:58;6.37;;;2.10;;
16579;SDS011;8402;51.466;6.806;2023-03-05T08:22:31;8.60;;;2.73;;
16579;SDS011;8402;51.466;6.806;2023-03-05T08:25:05;7.50;;;3.00;;
16579;SDS011;8402;51.466;6.806;2023-03-05T08:27:37;7.20;;;2.77;;
16579;SDS011;8402;51.466;6.806;2023-03-05T08:30:09;9.63;;;2.47;;
16579;SDS011;8402;51.466;6.806;2023-03-05T08:32:42;9.50;;;3.03;;
16579;SDS011;8402;51.466;6.806;2023-03-05T08:35:13;13.03;;;3.80;;
16579;SDS011;8402;51.466;6.806;2023-03-05T08:37:42;11.30;;;3.27;;
16579;SDS011;8402;51.466;6.806;2023-03-05T08:40:15;7.97;;;2.77;;
16579;SDS011;8402;51.466;6.806;2023-03-05T08:42:46;9.37;;;2.57;;
16579;SDS011;8402;51.466;6.806;2023-03-05T08:45:17;9.47;;;2.77;;
16579;SDS011;8402;51.466;6.806;2023-03-05T08:47:47;5.00;;;1.90;;
16579;SDS011;8402;51.466;6.806;2023-03-05T08:50:16;5.43;;;2.67;;
16579;SDS011;8402;51.466;6.806;2023-03-05T08:52:47;8.27;;;3.20;;
16579;SDS011;8402;51.466;6.806;2023-03-05T08:55:20;12.07;;;3.23;;
16579;SDS011;8402;51.466;6.806;2023-03-05T08:57:50;10.10;;;3.17;;
16579;SDS011;8402;51.466;6.806;2023-03-05T09:00:20;10.17;;;3.33;;
16579;SDS011;8402;51.466;6.806;2023-03-05T09:02:50;6.10;;;2.17;;
16579;SDS011;8402;51.466;6.806;2023-03-05T09:05:20;10.83;;;4.00;;
16579;SDS011;8402;51.466;6.806;2023-03-05T09:07:50;10.87;;;4.70;;
16579;SDS011;8402;51.466;6.806;2023-03-05T09:10:23;12.87;;;4.37;;
16579;SDS011;8402;51.466;6.806;2023-03-05T09:12:52;9.93;;;3.83;;
16579;SDS011;8402;51.466;6.806;2023-03-05T09:15:24;14.70;;;4.70;;
16579;SDS011;8402;51.466;6.806;2023-03-05T09:17:54;15.80;;;4.60;;
16579;SDS011;8402;51.466;6.806;2023-03-05T09:20:27;11.20;;;4.00;;
16579;SDS011;8402;51.466;6.806;2023-03-05T09:22:57;11.30;;;4.50;;
16579;SDS011;8402;51.466;6.806;2023-03-05T09:25:29;11.53;;;4.63;;
16579;SDS011;8402;51.466;6.806;2023-03-05T09:27:59;9.80;;;4.53;;
16579;SDS011;8402;51.466;6.806;2023-03-05T09:30:29;11.50;;;4.23;;
16579;SDS011;8402;51.466;6.806;2023-03-05T09:33:00;12.23;;;5.17;;
16579;SDS011;8402;51.466;6.806;2023-03-05T09:35:33;15.43;;;5.53;;
16579;SDS011;8402;51.466;6.806;2023-03-05T09:38:05;16.10;;;5.60;;
16579;SDS011;8402;51.466;6.806;2023-03-05T09:40:41;11.20;;;4.33;;
16579;SDS011;8402;51.466;6.806;2023-03-05T09:43:17;11.30;;;4.57;;
16579;SDS011;8402;51.466;6.806;2023-03-05T09:46:01;14.67;;;4.73;;
16579;SDS011;8402;51.466;6.806;2023-03-05T09:48:47;10.30;;;4.20;;
16579;SDS011;8402;51.466;6.806;2023-03-05T09:51:21;11.40;;;4.40;;
16579;SDS011;8402;51.466;6.806;2023-03-05T09:53:56;9.33;;;4.13;;
16579;SDS011;8402;51.466;6.806;2023-03-05T09:56:33;14.80;;;4.83;;
16579;SDS011;8402;51.466;6.806;2023-03-05T09:59:14;8.40;;;3.50;;
16579;SDS011;8402;51.466;6.806;2023-03-05T10:01:50;10.57;;;4.27;;
16579;SDS011;8402;51.466;6.806;2023-03-05T10:04:22;11.07;;;4.00;;
16579;SDS011;8402;51.466;6.806;2023-03-05T10:06:57;9.13;;;3.63;;
16579;SDS011;8402;51.466;6.806;2023-03-05T10:09:40;7.87;;;3.63;;
16579;SDS011;8402;51.466;6.806;2023-03-05T10:12:19;9.53;;;3.90;;
16579;SDS011;8402;51.466;6.806;2023-03-05T10:14:57;12.27;;;4.07;;
16579;SDS011;8402;51.466;6.806;2023-03-05T10:17:35;9.57;;;4.20;;
16579;SDS011;8402;51.466;6.806;2023-03-05T10:20:21;7.23;;;3.70;;
16579;SDS011;8402;51.466;6.806;2023-03-05T10:23:10;7.23;;;3.37;;
16579;SDS011;8402;51.466;6.806;2023-03-05T10:28:56;10.87;;;3.57;;
16579;SDS011;8402;51.466;6.806;2023-03-05T10:31:36;6.80;;;3.00;;
16579;SDS011;8402;51.466;6.806;2023-03-05T10:34:24;9.50;;;2.53;;
16579;SDS011;8402;51.466;6.806;2023-03-05T10:40:18;4.13;;;2.30;;
16579;SDS011;8402;51.466;6.806;2023-03-05T10:43:00;7.07;;;2.43;;
16579;SDS011;8402;51.466;6.806;2023-03-05T10:45:44;8.13;;;3.10;;
16579;SDS011;8402;51.466;6.806;2023-03-05T10:48:22;5.37;;;2.87;;
16579;SDS011;8402;51.466;6.806;2023-03-05T10:50:58;6.63;;;3.20;;
16579;SDS011;8402;51.466;6.806;2023-03-05T10:53:35;6.53;;;2.80;;
16579;SDS011;8402;51.466;6.806;2023-03-05T10:56:13;4.90;;;2.50;;
16579;SDS011;8402;51.466;6.806;2023-03-05T10:58:44;5.57;;;2.77;;
16579;SDS011;8402;51.466;6.806;2023-03-05T11:01:30;7.03;;;3.20;;
16579;SDS011;8402;51.466;6.806;2023-03-05T11:04:01;10.70;;;3.13;;
16579;SDS011;8402;51.466;6.806;2023-03-05T11:06:33;6.57;;;3.10;;
16579;SDS011;8402;51.466;6.806;2023-03-05T11:09:15;5.50;;;2.00;;
16579;SDS011;8402;51.466;6.806;2023-03-05T11:14:43;2.43;;;1.50;;
16579;SDS011;8402;51.466;6.806;2023-03-05T11:17:27;4.77;;;2.20;;
16579;SDS011;8402;51.466;6.806;2023-03-05T11:23:07;7.00;;;2.30;;
16579;SDS011;8402;51.466;6.806;2023-03-05T11:28:33;5.83;;;2.90;;
16579;SDS011;8402;51.466;6.806;2023-03-05T11:31:07;4.33;;;2.60;;
16579;SDS011;8402;51.466;6.806;2023-03-05T11:33:56;6.53;;;2.63;;
16579;SDS011;8402;51.466;6.806;2023-03-05T11:36:29;8.10;;;2.90;;
16579;SDS011;8402;51.466;6.806;2023-03-05T11:39:08;6.53;;;2.60;;
16579;SDS011;8402;51.466;6.806;2023-03-05T11:41:41;5.37;;;2.93;;
16579;SDS011;8402;51.466;6.806;2023-03-05T11:44:13;5.53;;;3.50;;
16579;SDS011;8402;51.466;6.806;2023-03-05T11:46:47;5.73;;;2.93;;
16579;SDS011;8402;51.466;6.806;2023-03-05T11:49:26;7.10;;;3.00;;
16579;SDS011;8402;51.466;6.806;2023-03-05T11:52:02;8.57;;;3.83;;
16579;SDS011;8402;51.466;6.806;2023-03-05T11:54:39;6.67;;;3.40;;
16579;SDS011;8402;51.466;6.806;2023-03-05T11:57:16;5.97;;;2.97;;
16579;SDS011;8402;51.466;6.806;2023-03-05T11:59:48;5.77;;;2.87;;
16579;SDS011;8402;51.466;6.806;2023-03-05T12:02:21;8.10;;;2.93;;
16579;SDS011;8402;51.466;6.806;2023-03-05T12:04:56;4.97;;;2.30;;
16579;SDS011;8402;51.466;6.806;2023-03-05T12:07:31;4.00;;;2.40;;
16579;SDS011;8402;51.466;6.806;2023-03-05T12:10:12;6.63;;;2.50;;
16579;SDS011;8402;51.466;6.806;2023-03-05T12:12:46;3.57;;;2.27;;
16579;SDS011;8402;51.466;6.806;2023-03-05T12:15:26;3.53;;;2.40;;
16579;SDS011;8402;51.466;6.806;2023-03-05T12:18:07;5.97;;;2.07;;
16579;SDS011;8402;51.466;6.806;2023-03-05T12:20:48;4.23;;;1.77;;
16579;SDS011;8402;51.466;6.806;2023-03-05T12:23:27;4.47;;;2.07;;
16579;SDS011;8402;51.466;6.806;2023-03-05T12:25:57;6.10;;;2.33;;
16579;SDS011;8402;51.466;6.806;2023-03-05T12:31:35;3.70;;;1.80;;
16579;SDS011;8402;51.466;6.806;2023-03-05T12:37:07;2.57;;;1.57;;
16579;SDS011;8402;51.466;6.806;2023-03-05T12:39:49;3.30;;;1.90;;
16579;SDS011;8402;51.466;6.806;2023-03-05T12:42:43;5.33;;;1.80;;
16579;SDS011;8402;51.466;6.806;2023-03-05T12:51:14;3.80;;;1.90;;
16579;SDS011;8402;51.466;6.806;2023-03-05T12:57:00;3.57;;;2.07;;
16579;SDS011;8402;51.466;6.806;2023-03-05T12:59:39;4.53;;;2.37;;
16579;SDS011;8402;51.466;6.806;2023-03-05T13:02:15;3.50;;;2.40;;
16579;SDS011;8402;51.466;6.806;2023-03-05T13:04:50;7.10;;;3.83;;
16579;SDS011;8402;51.466;6.806;2023-03-05T13:07:26;6.20;;;3.20;;
16579;SDS011;8402;51.466;6.806;2023-03-05T13:09:58;3.47;;;2.30;;
16579;SDS011;8402;51.466;6.806;2023-03-05T13:12:29;7.23;;;3.03;;
16579;SDS011;8402;51.466;6.806;2023-03-05T13:15:00;3.00;;;1.87;;
16579;SDS011;8402;51.466;6.806;2023-03-05T13:17:36;4.87;;;1.70;;
16579;SDS011;8402;51.466;6.806;2023-03-05T13:20:26;5.23;;;1.40;;
16579;SDS011;8402;51.466;6.806;2023-03-05T13:23:12;2.90;;;1.27;;
16579;SDS011;8402;51.466;6.806;2023-03-05T13:25:57;5.17;;;1.40;;
16579;SDS011;8402;51.466;6.806;2023-03-05T13:28:29;1.97;;;1.10;;
16579;SDS011;8402;51.466;6.806;2023-03-05T13:31:00;7.57;;;1.13;;
16579;SDS011;8402;51.466;6.806;2023-03-05T13:33:33;4.90;;;1.30;;
16579;SDS011;8402;51.466;6.806;2023-03-05T13:36:04;3.27;;;1.30;;
16579;SDS011;8402;51.466;6.806;2023-03-05T13:38:37;3.33;;;1.50;;
16579;SDS011;8402;51.466;6.806;2023-03-05T13:41:22;4.33;;;1.80;;
16579;SDS011;8402;51.466;6.806;2023-03-05T13:43:54;3.03;;;1.60;;
16579;SDS011;8402;51.466;6.806;2023-03-05T13:46:27;4.00;;;2.17;;
16579;SDS011;8402;51.466;6.806;2023-03-05T13:49:16;3.83;;;1.93;;
16579;SDS011;8402;51.466;6.806;2023-03-05T13:51:48;5.23;;;2.23;;
16579;SDS011;8402;51.466;6.806;2023-03-05T13:54:21;3.03;;;1.70;;
16579;SDS011;8402;51.466;6.806;2023-03-05T13:56:56;3.87;;;1.70;;
16579;SDS011;8402;51.466;6.806;2023-03-05T13:59:28;3.83;;;1.87;;
16579;SDS011;8402;51.466;6.806;2023-03-05T14:02:00;5.37;;;2.07;;
16579;SDS011;8402;51.466;6.806;2023-03-05T14:04:33;2.57;;;1.97;;
16579;SDS011;8402;51.466;6.806;2023-03-05T14:07:05;3.80;;;2.00;;
16579;SDS011;8402;51.466;6.806;2023-03-05T14:09:47;3.97;;;2.50;;
16579;SDS011;8402;51.466;6.806;2023-03-05T14:12:26;4.70;;;2.40;;
16579;SDS011;8402;51.466;6.806;2023-03-05T14:14:59;6.63;;;2.87;;
16579;SDS011;8402;51.466;6.806;2023-03-05T14:17:37;6.97;;;2.73;;
16579;SDS011;8402;51.466;6.806;2023-03-05T14:20:23;5.23;;;3.10;;
16579;SDS011;8402;51.466;6.806;2023-03-05T14:22:55;5.40;;;2.90;;
16579;SDS011;8402;51.466;6.806;2023-03-05T14:25:27;4.20;;;2.90;;
16579;SDS011;8402;51.466;6.806;2023-03-05T14:28:05;4.10;;;2.90;;
16579;SDS011;8402;51.466;6.806;2023-03-05T14:30:49;4.57;;;2.60;;
16579;SDS011;8402;51.466;6.806;2023-03-05T14:33:22;9.03;;;2.80;;
16579;SDS011;8402;51.466;6.806;2023-03-05T14:35:53;5.07;;;2.60;;
16579;SDS011;8402;51.466;6.806;2023-03-05T14:38:24;4.63;;;2.40;;
16579;SDS011;8402;51.466;6.806;2023-03-05T14:41:09;4.80;;;2.77;;
16579;SDS011;8402;51.466;6.806;2023-03-05T14:43:50;6.13;;;2.83;;
16579;SDS011;8402;51.466;6.806;2023-03-05T14:46:22;4.57;;;2.93;;
16579;SDS011;8402;51.466;6.806;2023-03-05T14:48:52;5.33;;;2.80;;
16579;SDS011;8402;51.466;6.806;2023-03-05T14:51:22;5.60;;;2.70;;
16579;SDS011;8402;51.466;6.806;2023-03-05T14:53:53;7.73;;;3.20;;
16579;SDS011;8402;51.466;6.806;2023-03-05T14:56:25;6.80;;;3.40;;
16579;SDS011;8402;51.466;6.806;2023-03-05T14:58:59;7.03;;;3.70;;
16579;SDS011;8402;51.466;6.806;2023-03-05T15:01:29;5.13;;;2.90;;
16579;SDS011;8402;51.466;6.806;2023-03-05T15:03:59;6.13;;;3.00;;
16579;SDS011;8402;51.466;6.806;2023-03-05T15:06:30;6.07;;;3.00;;
16579;SDS011;8402;51.466;6.806;2023-03-05T15:09:04;5.17;;;2.90;;
16579;SDS011;8402;51.466;6.806;2023-03-05T15:11:35;4.57;;;2.63;;
16579;SDS011;8402;51.466;6.806;2023-03-05T15:14:08;7.03;;;3.30;;
16579;SDS011;8402;51.466;6.806;2023-03-05T15:16:39;5.80;;;2.90;;
16579;SDS011;8402;51.466;6.806;2023-03-05T15:19:13;4.37;;;2.67;;
16579;SDS011;8402;51.466;6.806;2023-03-05T15:21:43;6.87;;;2.70;;
16579;SDS011;8402;51.466;6.806;2023-03-05T15:24:13;5.47;;;2.80;;
16579;SDS011;8402;51.466;6.806;2023-03-05T15:26:43;4.50;;;2.33;;
16579;SDS011;8402;51.466;6.806;2023-03-05T15:29:18;6.53;;;2.30;;
16579;SDS011;8402;51.466;6.806;2023-03-05T15:31:51;5.27;;;2.17;;
16579;SDS011;8402;51.466;6.806;2023-03-05T15:34:21;8.50;;;2.70;;
16579;SDS011;8402;51.466;6.806;2023-03-05T15:36:51;4.67;;;2.60;;
16579;SDS011;8402;51.466;6.806;2023-03-05T15:39:21;5.43;;;2.50;;
16579;SDS011;8402;51.466;6.806;2023-03-05T15:41:53;7.33;;;2.90;;
16579;SDS011;8402;51.466;6.806;2023-03-05T15:44:27;6.27;;;2.40;;
16579;SDS011;8402;51.466;6.806;2023-03-05T15:46:57;6.43;;;2.67;;
16579;SDS011;8402;51.466;6.806;2023-03-05T15:49:27;6.33;;;2.47;;
16579;SDS011;8402;51.466;6.806;2023-03-05T15:51:57;4.60;;;2.47;;
16579;SDS011;8402;51.466;6.806;2023-03-05T15:54:27;4.20;;;2.13;;
16579;SDS011;8402;51.466;6.806;2023-03-05T15:56:57;3.80;;;1.70;;
16579;SDS011;8402;51.466;6.806;2023-03-05T15:59:30;2.57;;;1.57;;
16579;SDS011;8402;51.466;6.806;2023-03-05T16:02:00;4.03;;;1.97;;